createdAt,value
2022-08-28T00:02:57.215Z,1.70
2022-08-28T00:07:05.076Z,1.67
2022-08-28T00:11:16.822Z,1.70
2022-08-28T00:20:00.458Z,1.50
2022-08-28T00:24:04.058Z,1.90
2022-08-28T00:28:21.001Z,1.50
2022-08-28T00:32:28.509Z,1.58
2022-08-28T00:36:31.845Z,1.67
2022-08-28T00:40:35.653Z,1.55
2022-08-28T00:44:40.894Z,1.75
2022-08-28T00:48:44.176Z,1.50
2022-08-28T00:52:48.907Z,1.50
2022-08-28T00:56:53.804Z,1.60
2022-08-28T01:01:00.570Z,1.60
2022-08-28T01:05:09.844Z,1.73
2022-08-28T01:09:15.159Z,1.25
2022-08-28T01:13:26.902Z,1.77
2022-08-28T01:17:35.552Z,1.70
2022-08-28T01:21:46.518Z,1.52
2022-08-28T01:25:52.544Z,1.52
2022-08-28T01:29:56.108Z,1.52
2022-08-28T01:34:01.088Z,1.50
2022-08-28T01:38:05.443Z,1.60
2022-08-28T01:42:09.950Z,1.70
2022-08-28T01:46:13.477Z,1.65
2022-08-28T01:50:21.255Z,1.52
2022-08-28T01:54:25.383Z,1.60
2022-08-28T01:58:30.169Z,1.52
2022-08-28T02:02:33.502Z,1.48
2022-08-28T02:06:38.009Z,1.60
2022-08-28T02:10:43.695Z,1.58
2022-08-28T02:14:48.176Z,1.67
2022-08-28T02:18:51.803Z,1.85
2022-08-28T02:22:55.679Z,1.80
2022-08-28T02:26:58.803Z,2.00
2022-08-28T02:31:03.623Z,1.77
2022-08-28T02:35:12.063Z,1.77
2022-08-28T02:39:15.516Z,1.50
2022-08-28T02:43:18.925Z,1.98
2022-08-28T02:47:23.542Z,1.70
2022-08-28T02:51:27.389Z,2.03
2022-08-28T02:55:34.201Z,1.88
2022-08-28T02:59:38.358Z,2.00
2022-08-28T03:03:43.489Z,1.90
2022-08-28T03:07:46.876Z,1.90
2022-08-28T03:11:49.940Z,2.03
2022-08-28T03:15:55.795Z,2.10
2022-08-28T03:20:00.528Z,2.10
2022-08-28T03:24:04.084Z,1.73
2022-08-28T03:28:07.131Z,1.90
2022-08-28T03:32:10.431Z,2.00
2022-08-28T03:36:17.972Z,2.08
2022-08-28T03:40:22.049Z,1.85
2022-08-28T03:44:25.159Z,1.73
2022-08-28T03:48:31.283Z,1.90
2022-08-28T03:52:35.976Z,2.00
2022-08-28T03:56:43.003Z,1.90
2022-08-28T04:00:46.751Z,1.73
2022-08-28T04:04:51.192Z,1.80
2022-08-28T04:08:55.816Z,2.00
2022-08-28T04:13:04.187Z,1.65
2022-08-28T04:17:08.288Z,1.55
2022-08-28T04:21:14.867Z,1.95
2022-08-28T04:25:19.569Z,1.80
2022-08-28T04:29:23.258Z,2.17
2022-08-28T04:33:28.292Z,1.90
2022-08-28T04:37:31.805Z,2.13
2022-08-28T04:41:38.681Z,1.90
2022-08-28T04:45:42.449Z,1.80
2022-08-28T04:49:45.753Z,2.00
2022-08-28T04:53:49.323Z,2.20
2022-08-28T04:57:53.961Z,2.00
2022-08-28T05:01:57.127Z,1.85
2022-08-28T05:06:00.233Z,2.25
2022-08-28T05:10:04.033Z,1.92
2022-08-28T05:14:15.382Z,2.28
2022-08-28T05:18:22.509Z,2.22
2022-08-28T05:22:28.847Z,2.20
2022-08-28T05:26:31.958Z,2.20
2022-08-28T05:30:38.314Z,2.35
2022-08-28T05:34:41.722Z,2.20
2022-08-28T05:38:45.600Z,2.20
2022-08-28T05:42:48.869Z,2.60
2022-08-28T05:46:54.373Z,2.13
2022-08-28T05:50:58.370Z,2.17
2022-08-28T05:55:01.539Z,2.50
2022-08-28T05:59:05.764Z,2.88
2022-08-28T06:03:10.254Z,2.78
2022-08-28T06:07:15.443Z,2.63
2022-08-28T06:11:21.081Z,2.70
2022-08-28T06:15:27.741Z,2.40
2022-08-28T06:19:37.206Z,2.90
2022-08-28T06:23:43.223Z,2.70
2022-08-28T06:27:46.332Z,2.78
2022-08-28T06:31:54.004Z,2.83
2022-08-28T06:35:58.923Z,2.72
2022-08-28T06:40:02.215Z,2.78
2022-08-28T06:44:05.751Z,2.90
2022-08-28T06:48:09.490Z,3.40
2022-08-28T06:52:14.100Z,3.10
2022-08-28T06:56:26.820Z,3.05
2022-08-28T07:00:30.525Z,3.20
2022-08-28T07:04:33.860Z,2.97
2022-08-28T07:08:39.200Z,3.03
2022-08-28T07:12:42.584Z,2.80
2022-08-28T07:16:46.072Z,3.10
2022-08-28T07:20:57.386Z,3.17
2022-08-28T07:25:02.390Z,3.38
2022-08-28T07:29:09.864Z,3.13
2022-08-28T07:33:14.443Z,3.28
2022-08-28T07:37:18.292Z,3.15
2022-08-28T07:41:25.043Z,3.70
2022-08-28T07:45:30.226Z,3.80
2022-08-28T07:49:35.032Z,3.22
2022-08-28T07:53:38.168Z,3.30
2022-08-28T07:57:43.316Z,3.85
2022-08-28T08:01:49.118Z,3.60
2022-08-28T08:05:56.279Z,3.72
2022-08-28T08:09:59.704Z,3.22
2022-08-28T08:14:06.068Z,3.25
2022-08-28T08:18:09.328Z,3.38
2022-08-28T08:22:12.622Z,3.28
2022-08-28T08:26:18.840Z,3.25
2022-08-28T08:30:23.387Z,2.88
2022-08-28T08:34:26.893Z,3.30
2022-08-28T08:38:31.144Z,3.55
2022-08-28T08:42:37.869Z,4.35
2022-08-28T08:46:52.306Z,4.28
2022-08-28T08:51:02.941Z,4.90
2022-08-28T08:55:27.140Z,4.40
2022-08-28T08:59:35.120Z,4.90
2022-08-28T09:03:56.006Z,4.50
2022-08-28T09:08:04.433Z,4.70
2022-08-28T09:12:10.012Z,5.15
2022-08-28T09:16:22.996Z,4.90
2022-08-28T09:20:32.816Z,4.97
2022-08-28T09:24:38.261Z,5.75
2022-08-28T09:28:44.720Z,5.50
2022-08-28T09:33:00.864Z,5.22
2022-08-28T09:37:08.578Z,5.03
2022-08-28T09:41:30.144Z,5.13
2022-08-28T09:45:33.431Z,5.50
2022-08-28T09:49:36.801Z,5.15
2022-08-28T09:53:57.759Z,5.10
2022-08-28T09:58:01.888Z,4.35
2022-08-28T10:02:24.463Z,3.50
2022-08-28T10:06:32.051Z,4.05
2022-08-28T10:10:43.061Z,4.18
2022-08-28T10:14:54.906Z,3.78
2022-08-28T10:19:06.452Z,3.90
2022-08-28T10:23:18.295Z,3.95
2022-08-28T10:27:41.018Z,3.70
2022-08-28T10:31:55.415Z,3.25
2022-08-28T10:36:04.340Z,3.40
2022-08-28T10:40:14.004Z,3.20
2022-08-28T10:44:22.584Z,2.60
2022-08-28T10:48:30.652Z,1.88
2022-08-28T10:52:40.138Z,1.42
2022-08-28T10:56:55.950Z,1.75
2022-08-28T11:01:06.796Z,2.00
2022-08-28T11:05:11.275Z,2.45
2022-08-28T11:09:26.056Z,2.35
2022-08-28T11:13:58.446Z,2.80
2022-08-28T11:18:34.912Z,2.50
2022-08-28T11:22:43.517Z,2.72
2022-08-28T11:26:57.806Z,2.60
2022-08-28T11:31:30.581Z,2.75
2022-08-28T11:35:45.799Z,2.80
2022-08-28T11:39:49.270Z,2.67
2022-08-28T11:44:13.485Z,2.85
2022-08-28T11:48:47.798Z,3.00
2022-08-28T11:53:42.065Z,2.83
2022-08-28T12:02:40.716Z,2.00
2022-08-28T12:06:55.996Z,2.33
2022-08-28T12:11:00.513Z,2.15
2022-08-28T12:15:10.328Z,2.40
2022-08-28T12:19:28.834Z,2.53
2022-08-28T12:23:42.296Z,2.55
2022-08-28T12:27:47.012Z,2.53
2022-08-28T12:32:15.003Z,2.88
2022-08-28T12:36:26.628Z,3.17
2022-08-28T12:40:34.912Z,3.00
2022-08-28T12:44:39.725Z,2.83
2022-08-28T12:48:50.402Z,3.13
2022-08-28T12:52:56.893Z,3.00
2022-08-28T12:57:00.299Z,2.88
2022-08-28T13:01:09.175Z,3.30
2022-08-28T13:05:25.088Z,2.45
2022-08-28T13:09:29.966Z,2.90
2022-08-28T13:13:39.578Z,2.90
2022-08-28T13:17:49.366Z,2.35
2022-08-28T13:21:58.762Z,2.65
2022-08-28T13:26:05.049Z,2.45
2022-08-28T13:30:29.387Z,2.40
2022-08-28T13:34:36.935Z,2.40
2022-08-28T13:38:40.003Z,3.13
2022-08-28T13:42:44.071Z,2.90
2022-08-28T13:46:47.201Z,3.08
2022-08-28T13:50:54.705Z,3.00
2022-08-28T13:54:58.729Z,2.80
2022-08-28T13:59:02.577Z,2.95
2022-08-28T14:03:23.640Z,2.75
2022-08-28T14:07:29.476Z,3.00
2022-08-28T14:11:33.329Z,2.80
2022-08-28T14:15:36.969Z,3.17
2022-08-28T14:19:40.295Z,2.92
2022-08-28T14:23:44.793Z,3.35
2022-08-28T14:27:48.699Z,3.58
2022-08-28T14:31:52.435Z,3.70
2022-08-28T14:35:55.638Z,3.22
2022-08-28T14:40:00.411Z,3.15
2022-08-28T14:44:04.960Z,3.70
2022-08-28T14:48:08.044Z,3.38
2022-08-28T14:52:11.888Z,3.33
2022-08-28T14:56:17.014Z,3.10
2022-08-28T15:00:20.411Z,3.13
2022-08-28T15:04:25.028Z,3.58
2022-08-28T15:08:28.470Z,3.35
2022-08-28T15:12:33.192Z,3.88
2022-08-28T15:16:40.318Z,3.45
2022-08-28T15:20:46.592Z,3.35
2022-08-28T15:24:50.612Z,3.25
2022-08-28T15:28:57.020Z,3.53
2022-08-28T15:33:00.415Z,3.63
2022-08-28T15:37:03.804Z,3.45
2022-08-28T15:41:25.950Z,3.65
2022-08-28T15:45:30.656Z,2.55
2022-08-28T15:49:38.961Z,3.03
2022-08-28T15:53:49.784Z,2.70
2022-08-28T15:57:52.931Z,2.58
2022-08-28T16:01:57.681Z,2.63
2022-08-28T16:06:01.002Z,2.65
2022-08-28T16:10:07.018Z,2.47
2022-08-28T16:14:10.127Z,2.50
2022-08-28T16:18:16.340Z,2.05
2022-08-28T16:22:20.289Z,2.60
2022-08-28T16:26:23.577Z,2.10
2022-08-28T16:30:26.672Z,2.60
2022-08-28T16:34:33.047Z,2.03
2022-08-28T16:38:39.025Z,1.88
2022-08-28T16:42:42.545Z,1.63
2022-08-28T16:46:55.900Z,1.75
2022-08-28T16:51:00.276Z,1.60
2022-08-28T16:55:04.021Z,1.75
2022-08-28T16:59:10.644Z,1.30
2022-08-28T17:03:14.377Z,1.50
2022-08-28T17:07:20.593Z,1.30
2022-08-28T17:11:25.390Z,1.40
2022-08-28T17:15:28.738Z,1.30
2022-08-28T17:19:32.070Z,1.27
2022-08-28T17:23:36.949Z,1.02
2022-08-28T17:27:41.354Z,1.10
2022-08-28T17:31:44.719Z,1.40
2022-08-28T17:35:50.387Z,1.10
2022-08-28T17:39:56.663Z,1.08
2022-08-28T17:43:59.837Z,1.20
2022-08-28T17:48:03.071Z,1.20
2022-08-28T17:52:06.965Z,1.25
2022-08-28T17:56:11.615Z,1.50
2022-08-28T18:00:16.552Z,1.50
2022-08-28T18:04:24.422Z,1.70
2022-08-28T18:08:28.415Z,1.30
2022-08-28T18:12:32.947Z,1.60
2022-08-28T18:16:38.493Z,1.50
2022-08-28T18:20:42.599Z,1.70
2022-08-28T18:24:45.689Z,2.25
2022-08-28T18:28:51.117Z,1.80
2022-08-28T18:32:55.614Z,2.00
2022-08-28T18:37:01.989Z,1.92
2022-08-28T18:41:07.187Z,1.73
2022-08-28T18:45:12.531Z,1.95
2022-08-28T18:49:15.812Z,2.20
2022-08-28T18:53:20.703Z,1.88
2022-08-28T18:57:25.131Z,2.00
2022-08-28T19:01:30.491Z,1.63
2022-08-28T19:05:38.158Z,1.70
2022-08-28T19:09:42.820Z,1.80
2022-08-28T19:13:46.831Z,1.92
2022-08-28T19:17:51.504Z,1.83
2022-08-28T19:21:54.781Z,2.00
2022-08-28T19:25:57.911Z,2.03
2022-08-28T19:30:01.097Z,2.08
2022-08-28T19:34:06.098Z,2.00
2022-08-28T19:38:09.523Z,1.80
2022-08-28T19:42:12.779Z,1.85
2022-08-28T19:46:19.820Z,2.00
2022-08-28T19:50:25.027Z,1.70
2022-08-28T19:54:28.475Z,1.83
2022-08-28T19:58:31.643Z,1.83
2022-08-28T20:02:35.047Z,2.13
2022-08-28T20:06:40.006Z,2.22
2022-08-28T20:10:43.840Z,2.22
2022-08-28T20:14:47.207Z,2.22
2022-08-28T20:18:51.017Z,1.90
2022-08-28T20:22:55.584Z,2.10
2022-08-28T20:26:59.474Z,2.20
2022-08-28T20:31:08.508Z,1.83
2022-08-28T20:35:14.455Z,2.10
2022-08-28T20:39:23.188Z,2.17
2022-08-28T20:43:27.482Z,2.08
2022-08-28T20:47:30.746Z,1.92
2022-08-28T20:51:53.089Z,2.08
2022-08-28T20:55:58.375Z,2.17
2022-08-28T21:00:05.534Z,2.15
2022-08-28T21:04:09.263Z,2.10
2022-08-28T21:08:14.606Z,2.40
2022-08-28T21:12:19.869Z,2.60
2022-08-28T21:16:23.314Z,2.45
2022-08-28T21:20:26.928Z,2.40
2022-08-28T21:24:31.060Z,2.28
2022-08-28T21:28:35.979Z,2.00
2022-08-28T21:32:39.882Z,2.70
2022-08-28T21:36:49.519Z,2.60
2022-08-28T21:40:53.399Z,3.17
2022-08-28T21:44:57.826Z,2.35
2022-08-28T21:49:01.088Z,2.78
2022-08-28T21:53:04.395Z,2.38
2022-08-28T21:57:07.594Z,2.90
2022-08-28T22:01:16.153Z,2.35
2022-08-28T22:05:20.028Z,2.70
2022-08-28T22:09:23.462Z,2.80
2022-08-28T22:13:26.572Z,2.85
2022-08-28T22:17:31.247Z,2.90
2022-08-28T22:21:51.646Z,3.25
2022-08-28T22:25:54.844Z,2.85
2022-08-28T22:29:58.123Z,2.75
2022-08-28T22:34:03.612Z,2.72
2022-08-28T22:38:09.249Z,3.15
2022-08-28T22:42:12.429Z,2.92
2022-08-28T22:46:16.838Z,3.15
2022-08-28T22:50:21.721Z,2.75
2022-08-28T22:54:25.130Z,2.97
2022-08-28T22:58:29.515Z,3.05
2022-08-28T23:02:32.848Z,2.72
2022-08-28T23:06:39.671Z,2.50
2022-08-28T23:10:58.501Z,3.03
2022-08-28T23:15:02.570Z,3.00
2022-08-28T23:19:09.088Z,3.20
2022-08-28T23:23:14.898Z,3.53
2022-08-28T23:31:41.815Z,3.45
2022-08-28T23:35:45.161Z,3.58
2022-08-28T23:39:49.647Z,3.67
2022-08-28T23:43:52.983Z,3.38
2022-08-28T23:47:56.081Z,3.72
2022-08-28T23:51:59.391Z,3.53
2022-08-28T23:56:04.923Z,3.40
